createdAt,value
2022-09-17T00:04:12.301Z,2.15
2022-09-17T00:09:34.111Z,2.22
2022-09-17T00:14:55.985Z,2.00
2022-09-17T00:20:17.891Z,1.90
2022-09-17T00:25:44.161Z,1.67
2022-09-17T00:31:09.951Z,1.80
2022-09-17T00:36:34.085Z,2.00
2022-09-17T00:41:55.876Z,2.58
2022-09-17T00:47:33.325Z,1.90
2022-09-17T00:53:20.980Z,2.20
2022-09-17T00:58:43.138Z,1.70
2022-09-17T01:04:04.996Z,2.67
2022-09-17T01:09:51.418Z,2.13
2022-09-17T01:15:28.446Z,2.03
2022-09-17T01:20:59.342Z,2.08
2022-09-17T01:26:53.533Z,1.65
2022-09-17T01:32:41.930Z,1.52
2022-09-17T01:38:31.852Z,1.60
2022-09-17T01:44:03.978Z,1.90
2022-09-17T01:49:25.756Z,1.98
2022-09-17T01:54:51.788Z,1.50
2022-09-17T02:00:14.957Z,1.40
2022-09-17T02:05:45.345Z,1.70
2022-09-17T02:11:13.065Z,1.85
2022-09-17T02:16:37.537Z,1.55
2022-09-17T02:22:23.613Z,1.50
2022-09-17T02:28:07.413Z,1.67
2022-09-17T02:33:31.945Z,1.25
2022-09-17T02:39:01.088Z,1.65
2022-09-17T02:44:47.655Z,1.60
2022-09-17T02:55:53.830Z,1.48
2022-09-17T03:01:28.591Z,1.48
2022-09-17T03:06:52.221Z,1.80
2022-09-17T03:12:14.781Z,1.45
2022-09-17T03:17:37.349Z,1.60
2022-09-17T03:22:59.103Z,1.65
2022-09-17T03:28:21.197Z,1.67
2022-09-17T03:33:42.998Z,1.80
2022-09-17T03:39:04.992Z,1.83
2022-09-17T03:44:26.798Z,2.08
2022-09-17T03:49:48.582Z,2.38
2022-09-17T03:55:10.550Z,2.05
2022-09-17T04:00:32.646Z,2.03
2022-09-17T04:05:54.780Z,2.15
2022-09-17T04:11:16.628Z,1.92
2022-09-17T04:16:38.468Z,2.45
2022-09-17T04:22:00.381Z,2.45
2022-09-17T04:27:22.166Z,2.35
2022-09-17T04:32:45.173Z,2.63
2022-09-17T04:38:07.005Z,1.95
2022-09-17T04:43:28.922Z,2.22
2022-09-17T04:48:50.706Z,1.90
2022-09-17T04:54:12.522Z,2.17
2022-09-17T04:59:34.437Z,1.77
2022-09-17T05:04:56.231Z,1.60
2022-09-17T05:10:20.296Z,1.50
2022-09-17T05:15:42.103Z,2.17
2022-09-17T05:21:04.173Z,1.55
2022-09-17T05:26:25.929Z,1.67
2022-09-17T05:31:47.829Z,1.40
2022-09-17T05:37:10.749Z,1.80
2022-09-17T05:42:32.764Z,1.70
2022-09-17T05:47:58.658Z,1.90
2022-09-17T05:53:20.453Z,1.40
2022-09-17T05:58:42.275Z,1.50
2022-09-17T06:04:04.075Z,1.50
2022-09-17T06:09:25.874Z,1.90
2022-09-17T06:14:47.794Z,1.60
2022-09-17T06:20:09.923Z,1.50
2022-09-17T06:25:31.693Z,1.45
2022-09-17T06:30:53.999Z,1.25
2022-09-17T06:36:15.873Z,1.70
2022-09-17T06:41:41.657Z,1.52
2022-09-17T06:47:03.664Z,1.58
2022-09-17T06:52:25.441Z,1.33
2022-09-17T06:57:47.589Z,1.40
2022-09-17T07:03:10.067Z,1.17
2022-09-17T07:08:32.667Z,1.50
2022-09-17T07:13:54.447Z,1.35
2022-09-17T07:19:16.203Z,1.80
2022-09-17T07:24:38.023Z,1.73
2022-09-17T07:30:00.011Z,1.77
2022-09-17T07:35:21.842Z,1.70
2022-09-17T07:40:43.597Z,1.60
2022-09-17T07:46:06.640Z,1.58
2022-09-17T07:51:28.777Z,1.85
2022-09-17T07:56:51.684Z,1.40
2022-09-17T08:02:13.745Z,2.00
2022-09-17T08:07:35.652Z,2.10
2022-09-17T08:12:58.312Z,2.47
2022-09-17T08:18:20.324Z,2.38
2022-09-17T08:23:44.006Z,2.25
2022-09-17T08:29:05.956Z,2.40
2022-09-17T08:34:27.842Z,2.03
2022-09-17T08:39:49.676Z,1.70
2022-09-17T08:45:21.053Z,1.65
2022-09-17T08:50:42.855Z,2.03
2022-09-17T08:56:13.075Z,1.50
2022-09-17T09:01:42.585Z,1.50
2022-09-17T09:07:23.704Z,1.40
2022-09-17T09:12:45.801Z,1.52
2022-09-17T09:18:22.692Z,1.25
2022-09-17T09:23:54.802Z,1.17
2022-09-17T09:29:37.982Z,10.00
2022-09-17T09:35:12.305Z,1.40
2022-09-17T09:40:57.335Z,1.35
2022-09-17T09:46:37.734Z,0.93
2022-09-17T09:52:11.434Z,1.20
2022-09-17T09:57:43.217Z,1.27
2022-09-17T10:03:15.599Z,1.10
2022-09-17T10:08:40.082Z,1.00
2022-09-17T10:14:27.475Z,1.40
2022-09-17T10:20:04.512Z,1.50
2022-09-17T10:25:33.886Z,1.10
2022-09-17T10:30:57.874Z,1.33
2022-09-17T10:36:41.388Z,1.20
2022-09-17T10:42:13.886Z,2.28
2022-09-17T10:47:42.284Z,0.80
2022-09-17T10:53:06.953Z,0.98
2022-09-17T10:58:46.776Z,1.27
2022-09-17T11:04:27.117Z,1.00
2022-09-17T11:09:58.571Z,1.50
2022-09-17T11:15:26.325Z,1.60
2022-09-17T11:21:19.175Z,1.38
2022-09-17T11:26:52.197Z,1.17
2022-09-17T11:32:32.859Z,1.05
2022-09-17T11:38:03.845Z,1.50
2022-09-17T11:43:29.326Z,1.10
2022-09-17T11:49:20.528Z,1.20
2022-09-17T11:55:01.221Z,1.20
2022-09-17T12:00:23.114Z,1.50
2022-09-17T12:06:02.494Z,1.38
2022-09-17T12:11:59.258Z,1.85
2022-09-17T12:17:36.873Z,1.67
2022-09-17T12:23:02.542Z,1.40
2022-09-17T12:28:46.532Z,1.73
2022-09-17T12:34:28.565Z,1.40
2022-09-17T12:40:05.619Z,1.15
2022-09-17T12:45:33.198Z,1.30
2022-09-17T12:51:04.355Z,0.95
2022-09-17T12:56:52.377Z,1.23
2022-09-17T13:02:27.412Z,1.50
2022-09-17T13:08:11.036Z,1.17
2022-09-17T13:14:20.344Z,1.48
2022-09-17T13:19:50.768Z,1.50
2022-09-17T13:25:15.484Z,1.80
2022-09-17T13:30:59.224Z,1.65
2022-09-17T13:36:33.322Z,1.20
2022-09-17T13:42:04.421Z,2.60
2022-09-17T13:47:30.606Z,1.58
2022-09-17T13:52:54.081Z,2.20
2022-09-17T13:58:18.568Z,1.95
2022-09-17T14:03:40.279Z,1.60
2022-09-17T14:09:39.190Z,1.58
2022-09-17T14:15:01.280Z,1.50
2022-09-17T14:20:24.387Z,1.40
2022-09-17T14:25:54.968Z,1.35
2022-09-17T14:31:20.828Z,1.35
2022-09-17T14:36:43.006Z,1.40
2022-09-17T14:42:07.219Z,1.50
2022-09-17T14:47:29.045Z,1.50
2022-09-17T14:52:52.679Z,1.95
2022-09-17T14:58:37.507Z,2.40
2022-09-17T15:04:14.912Z,2.35
2022-09-17T15:09:36.691Z,2.25
2022-09-17T15:14:58.702Z,2.47
2022-09-17T15:20:28.479Z,1.75
2022-09-17T15:25:54.916Z,1.50
2022-09-17T15:31:20.331Z,2.10
2022-09-17T15:37:06.163Z,4.07
2022-09-17T15:42:30.830Z,13.80
2022-09-17T15:48:24.198Z,3.20
2022-09-17T15:53:58.545Z,2.40
2022-09-17T15:59:38.183Z,2.80
2022-09-17T16:05:18.311Z,2.88
2022-09-17T16:10:40.084Z,2.70
2022-09-17T16:16:02.185Z,2.50
2022-09-17T16:21:24.027Z,2.50
2022-09-17T16:26:45.907Z,2.92
2022-09-17T16:32:10.599Z,2.65
2022-09-17T16:37:32.401Z,2.80
2022-09-17T16:42:54.352Z,2.85
2022-09-17T16:48:16.108Z,3.67
2022-09-17T16:53:38.661Z,6.10
2022-09-17T16:59:00.520Z,3.63
2022-09-17T17:04:22.330Z,4.78
2022-09-17T17:09:44.100Z,4.30
2022-09-17T17:15:06.671Z,4.50
2022-09-17T17:20:28.610Z,4.45
2022-09-17T17:25:50.381Z,4.53
2022-09-17T17:31:12.280Z,5.03
2022-09-17T17:36:34.329Z,4.80
2022-09-17T17:41:56.095Z,5.53
2022-09-17T17:47:18.078Z,4.93
2022-09-17T17:52:39.871Z,6.55
2022-09-17T17:58:01.940Z,7.45
2022-09-17T18:03:24.487Z,8.05
2022-09-17T18:08:46.339Z,6.40
2022-09-17T18:14:12.486Z,6.75
2022-09-17T18:19:34.294Z,7.27
2022-09-17T18:24:56.108Z,9.02
2022-09-17T18:30:17.871Z,8.27
2022-09-17T18:35:39.770Z,7.40
2022-09-17T18:41:11.243Z,7.32
2022-09-17T18:46:33.264Z,7.20
2022-09-17T18:51:55.393Z,7.43
2022-09-17T18:57:17.309Z,13.65
2022-09-17T19:02:39.124Z,8.15
2022-09-17T19:08:01.035Z,8.32
2022-09-17T19:13:22.880Z,9.40
2022-09-17T19:18:45.127Z,8.85
2022-09-17T19:24:07.206Z,8.95
2022-09-17T19:29:30.540Z,9.80
2022-09-17T19:34:52.468Z,9.57
2022-09-17T19:40:14.650Z,10.32
2022-09-17T19:45:36.601Z,10.32
2022-09-17T19:50:58.817Z,10.32
2022-09-17T19:56:23.432Z,10.45
2022-09-17T20:01:49.331Z,10.15
2022-09-17T20:07:11.460Z,10.93
2022-09-17T20:12:33.217Z,11.68
2022-09-17T20:17:55.327Z,11.25
2022-09-17T20:23:17.118Z,10.70
2022-09-17T20:28:39.270Z,11.10
2022-09-17T20:34:02.460Z,11.15
2022-09-17T20:39:24.789Z,11.65
2022-09-17T20:44:47.388Z,11.93
2022-09-17T20:50:09.534Z,11.38
2022-09-17T20:55:31.429Z,10.43
2022-09-17T21:00:53.776Z,10.73
2022-09-17T21:06:23.234Z,9.63
2022-09-17T21:11:46.684Z,9.25
2022-09-17T21:17:08.561Z,8.80
2022-09-17T21:22:30.559Z,7.10
2022-09-17T21:27:52.367Z,6.65
2022-09-17T21:33:15.212Z,7.15
2022-09-17T21:38:37.035Z,6.32
2022-09-17T21:43:59.185Z,6.57
2022-09-17T21:49:21.000Z,6.15
2022-09-17T21:54:42.878Z,6.70
2022-09-17T22:00:07.343Z,5.78
2022-09-17T22:05:29.193Z,6.38
2022-09-17T22:10:50.971Z,6.00
2022-09-17T22:16:12.870Z,5.75
2022-09-17T22:21:37.744Z,6.20
2022-09-17T22:26:59.530Z,6.45
2022-09-17T22:32:21.327Z,5.30
2022-09-17T22:37:43.115Z,6.80
2022-09-17T22:43:04.936Z,5.75
2022-09-17T22:48:26.869Z,6.03
2022-09-17T22:53:48.659Z,6.50
2022-09-17T22:59:11.159Z,5.80
2022-09-17T23:04:33.013Z,6.13
2022-09-17T23:09:54.804Z,7.28
2022-09-17T23:15:16.601Z,7.22
2022-09-17T23:20:38.415Z,7.15
2022-09-17T23:26:05.663Z,6.78
2022-09-17T23:31:28.992Z,6.65
2022-09-17T23:36:50.887Z,6.57
2022-09-17T23:42:12.675Z,6.13
2022-09-17T23:47:34.589Z,7.00
2022-09-17T23:52:56.385Z,6.13
2022-09-17T23:58:18.641Z,6.10
